createdAt,value
2019-04-29T00:01:57.042Z,8.37
2019-04-29T00:04:29.250Z,7.10
2019-04-29T00:06:59.765Z,9.10
2019-04-29T00:09:27.522Z,10.63
2019-04-29T00:11:55.589Z,7.13
2019-04-29T00:14:23.821Z,7.37
2019-04-29T00:17:04.028Z,5.93
2019-04-29T00:19:53.258Z,5.77
2019-04-29T00:22:21.140Z,8.17
2019-04-29T00:24:51.938Z,6.37
2019-04-29T00:27:21.929Z,8.47
2019-04-29T00:29:49.946Z,6.40
2019-04-29T00:32:17.871Z,5.60
2019-04-29T00:34:45.739Z,6.43
2019-04-29T00:37:30.744Z,6.10
2019-04-29T00:40:18.286Z,6.77
2019-04-29T00:43:02.538Z,5.57
2019-04-29T00:45:32.445Z,6.30
2019-04-29T00:48:00.531Z,5.27
2019-04-29T00:50:28.193Z,4.93
2019-04-29T00:52:55.946Z,7.00
2019-04-29T00:55:26.271Z,5.23
2019-04-29T00:57:56.321Z,8.60
2019-04-29T01:00:33.758Z,4.70
2019-04-29T01:03:03.835Z,4.87
2019-04-29T01:05:31.515Z,6.30
2019-04-29T01:08:00.169Z,8.73
2019-04-29T01:10:27.929Z,6.73
2019-04-29T01:12:55.596Z,6.63
2019-04-29T01:15:24.006Z,6.07
2019-04-29T01:17:52.336Z,8.47
2019-04-29T01:20:20.367Z,6.90
2019-04-29T01:22:48.325Z,7.37
2019-04-29T01:25:16.209Z,5.40
2019-04-29T01:27:50.701Z,4.73
2019-04-29T01:30:55.165Z,5.83
2019-04-29T01:33:23.680Z,5.87
2019-04-29T01:35:58.227Z,7.00
2019-04-29T01:38:29.615Z,6.20
2019-04-29T01:41:04.564Z,6.37
2019-04-29T01:43:53.453Z,5.87
2019-04-29T01:46:23.281Z,6.20
2019-04-29T01:48:54.667Z,7.07
2019-04-29T01:51:22.596Z,9.73
2019-04-29T01:53:51.761Z,8.47
2019-04-29T01:56:37.575Z,9.10
2019-04-29T01:59:17.826Z,7.43
2019-04-29T02:02:00.439Z,6.70
2019-04-29T02:04:30.676Z,7.03
2019-04-29T02:06:58.404Z,6.80
2019-04-29T02:09:39.419Z,5.67
2019-04-29T02:12:11.792Z,8.10
2019-04-29T02:14:41.462Z,7.37
2019-04-29T02:17:11.466Z,5.17
2019-04-29T02:19:41.012Z,7.83
2019-04-29T02:22:34.295Z,8.33
2019-04-29T02:25:09.560Z,10.17
2019-04-29T02:27:38.588Z,6.93
2019-04-29T02:30:08.488Z,5.77
2019-04-29T02:32:38.328Z,6.93
2019-04-29T02:35:07.246Z,5.90
2019-04-29T02:37:43.772Z,4.63
2019-04-29T02:40:22.136Z,6.17
2019-04-29T02:42:59.590Z,6.97
2019-04-29T02:45:31.453Z,6.67
2019-04-29T02:48:03.970Z,5.77
2019-04-29T02:50:34.852Z,8.20
2019-04-29T02:53:02.972Z,5.23
2019-04-29T02:55:38.862Z,7.17
2019-04-29T02:58:12.715Z,6.13
2019-04-29T03:01:01.591Z,7.30
2019-04-29T03:03:45.275Z,7.37
2019-04-29T03:06:17.362Z,8.33
2019-04-29T03:08:45.213Z,6.47
2019-04-29T03:11:17.181Z,8.67
2019-04-29T03:13:45.243Z,8.03
2019-04-29T03:16:13.754Z,7.90
2019-04-29T03:18:46.454Z,7.93
2019-04-29T03:21:23.169Z,6.53
2019-04-29T03:23:51.235Z,9.50
2019-04-29T03:26:23.208Z,9.67
2019-04-29T03:28:51.462Z,5.97
2019-04-29T03:31:19.428Z,7.23
2019-04-29T03:33:47.472Z,6.70
2019-04-29T03:36:16.326Z,7.73
2019-04-29T03:38:46.451Z,4.00
2019-04-29T03:41:16.155Z,6.27
2019-04-29T03:43:44.251Z,5.13
2019-04-29T03:46:12.299Z,8.23
2019-04-29T03:48:41.882Z,5.27
2019-04-29T03:51:09.921Z,8.97
2019-04-29T03:53:37.707Z,7.30
2019-04-29T03:56:08.250Z,8.63
2019-04-29T03:58:39.898Z,5.77
2019-04-29T04:01:22.052Z,8.40
2019-04-29T04:04:03.502Z,7.57
2019-04-29T04:06:36.219Z,7.77
2019-04-29T04:09:16.286Z,4.93
2019-04-29T04:11:44.010Z,7.10
2019-04-29T04:14:11.720Z,6.87
2019-04-29T04:17:27.532Z,5.57
2019-04-29T04:23:34.136Z,6.93
2019-04-29T04:26:03.740Z,7.37
2019-04-29T04:28:35.547Z,4.73
2019-04-29T04:31:07.366Z,6.33
2019-04-29T04:33:42.545Z,5.40
2019-04-29T04:36:12.088Z,4.50
2019-04-29T04:45:26.555Z,6.37
2019-04-29T04:47:54.718Z,5.20
2019-04-29T04:50:25.696Z,5.83
2019-04-29T04:52:58.590Z,5.20
2019-04-29T04:55:29.511Z,6.60
2019-04-29T04:57:57.390Z,5.80
2019-04-29T05:00:32.320Z,6.23
2019-04-29T05:06:47.701Z,4.83
2019-04-29T05:09:15.732Z,5.80
2019-04-29T05:11:44.646Z,6.70
2019-04-29T05:14:13.627Z,4.57
2019-04-29T05:16:42.665Z,7.43
2019-04-29T05:19:14.572Z,9.30
2019-04-29T05:21:45.026Z,7.33
2019-04-29T05:24:13.053Z,8.63
2019-04-29T05:26:41.114Z,6.83
2019-04-29T05:29:17.352Z,7.43
2019-04-29T05:31:47.158Z,5.63
2019-04-29T05:38:43.164Z,7.57
2019-04-29T05:41:43.732Z,8.90
2019-04-29T05:44:30.384Z,8.90
2019-04-29T05:47:35.334Z,11.03
2019-04-29T05:53:54.868Z,8.00
2019-04-29T06:00:24.203Z,7.57
2019-04-29T06:03:37.873Z,5.63
2019-04-29T06:06:05.459Z,8.13
2019-04-29T06:08:34.434Z,5.97
2019-04-29T06:11:06.119Z,9.17
2019-04-29T06:13:43.754Z,6.63
2019-04-29T06:16:11.491Z,7.20
2019-04-29T06:18:45.249Z,8.90
2019-04-29T06:21:14.350Z,9.87
2019-04-29T06:23:44.081Z,6.33
2019-04-29T06:26:14.401Z,8.73
2019-04-29T06:28:46.748Z,9.23
2019-04-29T06:31:24.975Z,7.30
2019-04-29T06:33:54.159Z,7.27
2019-04-29T06:36:47.414Z,7.33
2019-04-29T06:39:16.168Z,15.47
2019-04-29T06:41:46.963Z,10.00
2019-04-29T06:44:16.558Z,10.87
2019-04-29T06:46:50.196Z,11.93
2019-04-29T06:49:36.541Z,7.97
2019-04-29T06:59:16.306Z,6.03
2019-04-29T07:01:47.295Z,7.37
2019-04-29T07:05:27.788Z,9.63
2019-04-29T07:08:10.872Z,5.27
2019-04-29T07:10:55.876Z,8.03
2019-04-29T07:13:41.347Z,9.67
2019-04-29T07:16:10.057Z,9.00
2019-04-29T07:18:53.833Z,9.97
2019-04-29T07:24:42.750Z,7.03
2019-04-29T07:27:28.238Z,6.53
2019-04-29T07:30:01.833Z,8.70
2019-04-29T07:32:48.996Z,8.07
2019-04-29T07:35:23.451Z,10.47
2019-04-29T07:37:56.895Z,10.30
2019-04-29T07:40:27.292Z,7.33
2019-04-29T07:43:02.887Z,10.67
2019-04-29T07:46:03.858Z,8.53
2019-04-29T07:48:32.402Z,7.60
2019-04-29T07:51:19.539Z,7.10
2019-04-29T07:53:54.486Z,9.17
2019-04-29T07:56:37.937Z,11.20
2019-04-29T07:59:19.776Z,7.53
2019-04-29T08:08:04.852Z,7.87
2019-04-29T08:14:26.021Z,8.83
2019-04-29T08:17:09.242Z,10.23
2019-04-29T08:19:39.825Z,8.30
2019-04-29T08:22:09.209Z,9.67
2019-04-29T08:24:45.964Z,12.93
2019-04-29T08:27:19.694Z,13.00
2019-04-29T08:29:48.661Z,8.90
2019-04-29T08:32:18.496Z,10.57
2019-04-29T08:35:03.153Z,9.77
2019-04-29T08:37:32.737Z,11.47
2019-04-29T08:40:15.917Z,13.07
2019-04-29T08:42:46.892Z,16.73
2019-04-29T08:45:38.617Z,9.87
2019-04-29T08:48:11.696Z,9.57
2019-04-29T08:55:12.724Z,9.90
2019-04-29T08:57:50.864Z,9.37
2019-04-29T09:00:20.925Z,11.97
2019-04-29T09:02:51.822Z,13.27
2019-04-29T09:05:24.777Z,10.90
2019-04-29T09:08:08.646Z,9.43
2019-04-29T09:14:05.299Z,9.23
2019-04-29T09:16:54.866Z,10.67
2019-04-29T09:20:08.006Z,7.60
2019-04-29T09:22:42.643Z,10.67
2019-04-29T09:26:02.534Z,11.13
2019-04-29T09:29:37.387Z,13.27
2019-04-29T09:32:18.600Z,9.57
2019-04-29T09:35:18.926Z,11.07
2019-04-29T09:41:35.065Z,9.97
2019-04-29T09:44:22.546Z,8.63
2019-04-29T09:46:57.015Z,11.60
2019-04-29T09:49:26.261Z,8.93
2019-04-29T09:51:55.416Z,9.93
2019-04-29T09:54:26.000Z,8.20
2019-04-29T09:56:57.338Z,11.50
2019-04-29T09:59:33.988Z,9.87
2019-04-29T10:02:38.924Z,7.07
2019-04-29T10:09:01.284Z,9.33
2019-04-29T10:11:30.611Z,5.63
2019-04-29T10:14:05.366Z,5.40
2019-04-29T10:17:05.888Z,9.07
2019-04-29T10:20:03.081Z,7.07
2019-04-29T10:22:53.790Z,8.80
2019-04-29T10:25:20.546Z,9.57
2019-04-29T10:27:51.658Z,10.93
2019-04-29T10:30:26.764Z,8.87
2019-04-29T10:32:55.062Z,8.17
2019-04-29T10:35:33.427Z,7.47
2019-04-29T10:38:21.939Z,8.00
2019-04-29T10:41:46.600Z,6.60
2019-04-29T10:44:42.495Z,7.23
2019-04-29T10:47:45.814Z,10.00
2019-04-29T10:50:23.882Z,9.60
2019-04-29T10:52:53.268Z,8.53
2019-04-29T10:55:30.082Z,8.80
2019-04-29T10:57:58.322Z,9.57
2019-04-29T11:01:24.085Z,8.83
2019-04-29T11:03:55.830Z,8.80
2019-04-29T11:06:52.268Z,8.50
2019-04-29T11:10:24.401Z,8.37
2019-04-29T11:12:49.890Z,9.73
2019-04-29T11:16:13.435Z,7.60
2019-04-29T11:19:20.213Z,9.90
2019-04-29T11:21:51.834Z,8.70
2019-04-29T11:29:01.236Z,13.20
2019-04-29T11:36:13.216Z,9.50
2019-04-29T11:39:32.201Z,10.03
2019-04-29T11:42:31.783Z,9.53
2019-04-29T11:45:02.183Z,10.00
2019-04-29T11:47:31.933Z,11.23
2019-04-29T11:50:45.245Z,9.13
2019-04-29T11:53:41.609Z,9.90
2019-04-29T11:56:33.282Z,11.37
2019-04-29T11:59:53.690Z,12.27
2019-04-29T12:03:06.742Z,10.03
2019-04-29T12:06:03.429Z,10.07
2019-04-29T12:08:55.101Z,8.47
2019-04-29T12:15:55.048Z,9.63
2019-04-29T12:21:40.580Z,12.77
2019-04-29T12:24:09.569Z,9.77
2019-04-29T12:26:42.920Z,9.27
2019-04-29T12:29:08.578Z,9.97
2019-04-29T12:32:10.402Z,9.27
2019-04-29T12:35:21.736Z,8.17
2019-04-29T12:38:39.025Z,6.93
2019-04-29T12:41:48.880Z,8.30
2019-04-29T12:44:46.156Z,10.37
2019-04-29T12:47:27.958Z,9.43
2019-04-29T12:50:17.386Z,9.30
2019-04-29T12:52:58.177Z,9.57
2019-04-29T12:55:49.463Z,8.07
2019-04-29T12:58:25.847Z,7.43
2019-04-29T13:01:01.052Z,7.03
2019-04-29T13:03:49.353Z,9.57
2019-04-29T13:07:15.969Z,8.90
2019-04-29T13:09:46.539Z,7.30
2019-04-29T13:15:02.625Z,8.43
2019-04-29T13:18:08.286Z,7.63
2019-04-29T13:20:52.195Z,8.30
2019-04-29T13:23:33.171Z,9.07
2019-04-29T13:26:37.345Z,7.17
2019-04-29T13:30:01.472Z,6.80
2019-04-29T13:32:48.491Z,7.00
2019-04-29T13:35:18.489Z,8.10
2019-04-29T13:38:12.263Z,7.43
2019-04-29T13:41:11.155Z,8.63
2019-04-29T13:50:51.083Z,7.57
2019-04-29T13:53:28.768Z,6.13
2019-04-29T13:56:32.636Z,7.97
2019-04-29T13:59:05.375Z,9.07
2019-04-29T14:02:01.191Z,7.63
2019-04-29T14:04:40.349Z,9.40
2019-04-29T14:08:03.903Z,7.87
2019-04-29T14:14:46.702Z,12.00
2019-04-29T14:17:36.924Z,13.13
2019-04-29T14:20:17.429Z,21.97
2019-04-29T14:22:47.290Z,10.97
2019-04-29T14:25:29.982Z,10.00
2019-04-29T14:28:27.285Z,13.27
2019-04-29T14:37:54.987Z,9.83
2019-04-29T14:40:21.135Z,12.87
2019-04-29T14:44:21.581Z,10.93
2019-04-29T14:47:52.331Z,8.90
2019-04-29T14:50:31.460Z,12.07
2019-04-29T14:53:10.483Z,13.03
2019-04-29T14:55:43.823Z,11.70
2019-04-29T14:58:31.097Z,13.17
2019-04-29T15:01:49.910Z,12.03
2019-04-29T15:04:36.691Z,14.33
2019-04-29T15:18:45.790Z,15.57
2019-04-29T15:21:31.659Z,13.83
2019-04-29T15:23:50.672Z,16.53
2019-04-29T15:26:20.406Z,15.30
2019-04-29T15:28:52.662Z,15.73
2019-04-29T15:31:48.975Z,15.33
2019-04-29T15:34:19.175Z,18.53
2019-04-29T15:37:09.080Z,17.17
2019-04-29T15:40:01.072Z,15.57
2019-04-29T15:42:58.811Z,15.43
2019-04-29T15:46:29.911Z,17.40
2019-04-29T16:01:31.465Z,17.00
2019-04-29T16:04:36.020Z,17.43
2019-04-29T16:07:34.570Z,18.53
2019-04-29T16:10:30.686Z,18.00
2019-04-29T16:13:11.395Z,18.63
2019-04-29T16:15:41.155Z,19.20
2019-04-29T16:18:24.287Z,17.30
2019-04-29T16:21:46.108Z,19.97
2019-04-29T16:24:26.781Z,23.83
2019-04-29T16:27:34.105Z,19.80
2019-04-29T16:30:26.230Z,18.57
2019-04-29T16:33:15.870Z,18.73
2019-04-29T16:36:04.828Z,20.83
2019-04-29T16:38:51.366Z,17.60
2019-04-29T16:42:07.471Z,20.77
2019-04-29T16:48:17.462Z,17.80
2019-04-29T16:51:14.178Z,18.10
2019-04-29T16:54:39.133Z,15.33
2019-04-29T16:57:30.774Z,14.70
2019-04-29T17:00:13.707Z,12.07
2019-04-29T17:04:05.138Z,13.70
2019-04-29T17:07:29.981Z,14.20
2019-04-29T17:10:40.032Z,12.47
2019-04-29T17:13:26.339Z,11.87
2019-04-29T17:16:11.222Z,12.07
2019-04-29T17:19:11.755Z,12.03
2019-04-29T17:21:44.058Z,11.90
2019-04-29T17:27:58.382Z,12.53
2019-04-29T17:30:54.157Z,10.47
2019-04-29T17:33:33.946Z,12.47
2019-04-29T17:36:09.874Z,11.80
2019-04-29T17:38:58.181Z,10.17
2019-04-29T17:42:22.280Z,10.53
2019-04-29T17:45:01.370Z,9.63
2019-04-29T17:48:18.277Z,10.83
2019-04-29T17:50:58.068Z,9.17
2019-04-29T17:53:36.512Z,10.33
2019-04-29T17:56:26.977Z,9.40
2019-04-29T17:59:11.285Z,9.57
2019-04-29T18:02:08.347Z,12.53
2019-04-29T18:05:18.338Z,10.43
2019-04-29T18:07:58.254Z,11.53
2019-04-29T18:10:45.808Z,11.57
2019-04-29T18:14:01.319Z,13.63
2019-04-29T18:16:48.820Z,16.27
2019-04-29T18:19:36.199Z,14.80
2019-04-29T18:22:34.915Z,17.60
2019-04-29T18:25:32.190Z,18.57
2019-04-29T18:28:16.330Z,17.43
2019-04-29T18:31:14.276Z,18.83
2019-04-29T18:34:39.101Z,17.93
2019-04-29T18:37:36.915Z,18.80
2019-04-29T18:40:11.101Z,18.70
2019-04-29T18:42:49.377Z,18.87
2019-04-29T18:45:38.521Z,18.90
2019-04-29T18:48:27.097Z,20.23
2019-04-29T18:51:00.383Z,18.73
2019-04-29T18:53:38.759Z,20.13
2019-04-29T18:56:08.779Z,18.67
2019-04-29T18:58:46.829Z,18.13
2019-04-29T19:01:18.303Z,18.13
2019-04-29T19:04:00.145Z,20.63
2019-04-29T19:06:40.487Z,20.77
2019-04-29T19:09:59.190Z,19.47
2019-04-29T19:12:28.323Z,20.77
2019-04-29T19:15:29.126Z,18.80
2019-04-29T19:18:25.497Z,24.70
2019-04-29T19:21:16.563Z,26.93
2019-04-29T19:23:57.433Z,22.73
2019-04-29T19:26:46.714Z,26.23
2019-04-29T19:29:59.538Z,26.60
2019-04-29T19:32:31.626Z,26.87
2019-04-29T19:35:06.603Z,27.00
2019-04-29T19:37:41.080Z,31.20
2019-04-29T19:40:40.527Z,24.03
2019-04-29T19:43:10.164Z,27.67
2019-04-29T19:46:22.659Z,26.20
2019-04-29T19:49:40.103Z,26.80
2019-04-29T19:53:00.646Z,29.40
2019-04-29T19:56:33.437Z,28.63
2019-04-29T19:59:16.864Z,29.47
2019-04-29T20:01:51.310Z,35.50
2019-04-29T20:04:53.764Z,30.50
2019-04-29T20:07:27.318Z,30.53
2019-04-29T20:10:06.739Z,30.57
2019-04-29T20:12:45.960Z,29.30
2019-04-29T20:22:32.828Z,30.13
2019-04-29T20:25:16.224Z,31.80
2019-04-29T20:27:46.794Z,34.50
2019-04-29T20:30:27.104Z,31.80
2019-04-29T20:33:11.612Z,34.47
2019-04-29T20:35:45.472Z,35.67
2019-04-29T20:38:16.006Z,29.43
2019-04-29T20:40:46.623Z,29.20
2019-04-29T20:43:16.049Z,31.40
2019-04-29T20:45:48.656Z,34.97
2019-04-29T20:48:19.576Z,32.47
2019-04-29T20:50:56.929Z,34.17
2019-04-29T20:53:42.184Z,33.53
2019-04-29T20:56:28.607Z,32.03
2019-04-29T20:59:01.969Z,32.67
2019-04-29T21:01:36.510Z,34.30
2019-04-29T21:04:31.002Z,31.93
2019-04-29T21:07:00.486Z,32.13
2019-04-29T21:09:30.132Z,32.13
2019-04-29T21:12:38.423Z,32.70
2019-04-29T21:15:15.038Z,34.90
2019-04-29T21:17:50.068Z,31.47
2019-04-29T21:20:28.697Z,34.37
2019-04-29T21:23:03.022Z,29.77
2019-04-29T21:25:37.105Z,32.30
2019-04-29T21:28:08.511Z,33.63
2019-04-29T21:30:42.720Z,31.27
2019-04-29T21:33:17.837Z,33.50
2019-04-29T21:36:16.026Z,31.20
2019-04-29T21:39:22.722Z,34.13
2019-04-29T21:41:58.746Z,36.47
2019-04-29T21:44:29.655Z,35.23
2019-04-29T21:46:59.751Z,31.43
2019-04-29T21:49:49.896Z,34.30
2019-04-29T21:52:19.709Z,34.77
2019-04-29T21:54:49.259Z,35.40
2019-04-29T21:57:23.735Z,33.20
2019-04-29T21:59:51.453Z,29.63
2019-04-29T22:02:22.253Z,31.07
2019-04-29T22:04:55.211Z,35.07
2019-04-29T22:07:30.439Z,35.00
2019-04-29T22:09:59.506Z,34.27
2019-04-29T22:12:30.099Z,36.07
2019-04-29T22:14:59.473Z,33.80
2019-04-29T22:17:33.163Z,35.77
2019-04-29T22:20:09.128Z,34.33
2019-04-29T22:22:45.247Z,38.53
2019-04-29T22:25:15.889Z,35.57
2019-04-29T22:27:45.083Z,35.47
2019-04-29T22:30:26.560Z,34.77
2019-04-29T22:33:07.767Z,36.93
2019-04-29T22:35:40.777Z,32.30
2019-04-29T22:38:12.526Z,33.13
2019-04-29T22:40:40.927Z,31.27
2019-04-29T22:43:17.828Z,31.53
2019-04-29T22:45:45.902Z,32.37
2019-04-29T22:48:19.857Z,32.97
2019-04-29T22:50:51.073Z,29.90
2019-04-29T22:53:21.055Z,32.20
2019-04-29T22:55:51.987Z,30.93
2019-04-29T22:58:21.706Z,31.93
2019-04-29T23:00:54.969Z,31.90
2019-04-29T23:03:26.739Z,32.00
2019-04-29T23:05:55.938Z,31.63
2019-04-29T23:08:29.793Z,32.57
2019-04-29T23:10:59.749Z,32.57
2019-04-29T23:13:26.741Z,31.43
2019-04-29T23:16:01.058Z,30.30
2019-04-29T23:18:40.941Z,30.87
2019-04-29T23:21:16.537Z,32.67
2019-04-29T23:23:55.335Z,30.10
2019-04-29T23:26:24.883Z,33.70
2019-04-29T23:28:55.325Z,29.20
2019-04-29T23:31:28.298Z,32.73
2019-04-29T23:33:57.360Z,30.63
2019-04-29T23:36:30.538Z,31.07
2019-04-29T23:39:02.145Z,31.53
2019-04-29T23:41:32.973Z,33.10
2019-04-29T23:44:05.224Z,31.13
2019-04-29T23:46:34.250Z,31.67
2019-04-29T23:49:04.649Z,31.93
2019-04-29T23:51:37.666Z,34.20
2019-04-29T23:54:08.140Z,34.20
2019-04-29T23:56:51.098Z,33.97
2019-04-29T23:59:25.170Z,34.43
